createdAt,value
2022-11-03T00:01:00.510Z,0
2022-11-03T00:02:01.325Z,0
2022-11-03T00:03:01.525Z,0
2022-11-03T00:04:01.857Z,0
2022-11-03T00:05:01.175Z,0
2022-11-03T00:06:02.356Z,0
2022-11-03T00:07:02.834Z,0
2022-11-03T00:08:03.532Z,0
2022-11-03T00:09:03.528Z,0
2022-11-03T00:10:04.555Z,0
2022-11-03T00:11:04.757Z,0
2022-11-03T00:12:05.242Z,0
2022-11-03T00:13:05.213Z,0
2022-11-03T00:14:04.996Z,0
2022-11-03T00:15:05.658Z,0
2022-11-03T00:16:06.133Z,0
2022-11-03T00:17:06.321Z,0
2022-11-03T00:18:06.520Z,0
2022-11-03T00:19:06.724Z,0
2022-11-03T00:20:07.422Z,0
2022-11-03T00:21:08.328Z,0
2022-11-03T00:22:08.544Z,0
2022-11-03T00:23:09.406Z,0
2022-11-03T00:24:09.427Z,0
2022-11-03T00:25:09.931Z,0
2022-11-03T00:26:10.136Z,0
2022-11-03T00:27:10.620Z,0
2022-11-03T00:28:10.916Z,0
2022-11-03T00:29:11.558Z,0
2022-11-03T00:30:12.281Z,0
2022-11-03T00:31:12.889Z,0
2022-11-03T00:32:13.497Z,0
2022-11-03T00:33:14.991Z,0
2022-11-03T00:34:14.026Z,0
2022-11-03T00:35:14.938Z,0
2022-11-03T00:36:15.547Z,0
2022-11-03T00:37:16.177Z,0
2022-11-03T00:38:16.800Z,0
2022-11-03T00:39:18.019Z,0
2022-11-03T00:40:17.744Z,0
2022-11-03T00:41:18.936Z,0
2022-11-03T00:42:19.838Z,0
2022-11-03T00:43:20.748Z,0
2022-11-03T00:44:20.672Z,0
2022-11-03T00:45:21.576Z,0
2022-11-03T00:46:23.056Z,0
2022-11-03T00:47:29.886Z,0
2022-11-03T00:48:24.384Z,0
2022-11-03T00:49:24.279Z,0
2022-11-03T00:50:24.566Z,0
2022-11-03T00:51:24.894Z,0
2022-11-03T00:52:26.092Z,0
2022-11-03T00:53:25.991Z,0
2022-11-03T00:54:26.915Z,0
2022-11-03T00:55:26.553Z,0
2022-11-03T00:56:27.439Z,0
2022-11-03T00:57:28.651Z,0
2022-11-03T00:58:28.545Z,0
2022-11-03T00:59:29.151Z,0
2022-11-03T01:00:30.446Z,0
2022-11-03T01:01:30.729Z,0
2022-11-03T01:02:30.989Z,0
2022-11-03T01:03:31.341Z,0
2022-11-03T01:04:30.955Z,0
2022-11-03T01:05:32.156Z,0
2022-11-03T01:06:32.344Z,0
2022-11-03T01:07:31.956Z,0
2022-11-03T01:08:36.584Z,0
2022-11-03T01:09:33.502Z,0
2022-11-03T01:10:34.248Z,0
2022-11-03T01:11:34.727Z,0
2022-11-03T01:12:34.644Z,0
2022-11-03T01:13:35.550Z,0
2022-11-03T01:14:35.457Z,0
2022-11-03T01:15:36.364Z,0
2022-11-03T01:16:36.973Z,0
2022-11-03T01:17:37.306Z,0
2022-11-03T01:18:37.953Z,0
2022-11-03T01:19:38.544Z,0
2022-11-03T01:20:39.224Z,0
2022-11-03T01:21:39.817Z,0
2022-11-03T01:22:40.150Z,0
2022-11-03T01:23:41.649Z,0
2022-11-03T01:24:41.724Z,0
2022-11-03T01:25:42.410Z,0
2022-11-03T01:26:43.302Z,0
2022-11-03T01:27:43.906Z,0
2022-11-03T01:28:45.087Z,0
2022-11-03T01:29:46.261Z,0
2022-11-03T01:30:46.843Z,0
2022-11-03T01:31:47.053Z,0
2022-11-03T01:32:47.659Z,0
2022-11-03T01:33:48.154Z,0
2022-11-03T01:34:48.411Z,0
2022-11-03T01:35:48.089Z,0
2022-11-03T01:36:48.992Z,0
2022-11-03T01:37:49.597Z,0
2022-11-03T01:38:50.484Z,0
2022-11-03T01:39:51.378Z,0
2022-11-03T01:40:52.094Z,0
2022-11-03T01:41:53.271Z,0
2022-11-03T01:42:53.458Z,0
2022-11-03T01:43:54.363Z,0
2022-11-03T01:44:55.009Z,0
2022-11-03T01:45:55.919Z,0
2022-11-03T01:46:56.822Z,0
2022-11-03T01:48:58.329Z,0
2022-11-03T01:49:58.112Z,0
2022-11-03T01:50:59.396Z,0
2022-11-03T01:52:00.296Z,0
2022-11-03T01:53:00.482Z,0
2022-11-03T01:54:01.033Z,0
2022-11-03T01:55:01.237Z,0
2022-11-03T01:56:01.142Z,0
2022-11-03T01:57:02.623Z,0
2022-11-03T01:58:03.536Z,0
2022-11-03T01:59:04.445Z,0
2022-11-03T02:00:04.059Z,0
2022-11-03T02:01:05.444Z,0
2022-11-03T02:02:05.822Z,0
2022-11-03T02:03:06.746Z,0
2022-11-03T02:04:07.105Z,0
2022-11-03T02:05:08.019Z,0
2022-11-03T02:06:07.634Z,0
2022-11-03T02:07:08.514Z,0
2022-11-03T02:10:10.048Z,0
2022-11-03T02:11:10.373Z,0
2022-11-03T02:12:10.555Z,0
2022-11-03T02:13:12.680Z,0
2022-11-03T02:14:11.562Z,0
2022-11-03T02:15:13.044Z,0
2022-11-03T02:16:12.950Z,0
2022-11-03T02:17:13.835Z,0
2022-11-03T02:18:14.735Z,0
2022-11-03T02:19:14.948Z,0
2022-11-03T02:20:15.156Z,0
2022-11-03T02:21:15.551Z,0
2022-11-03T02:22:15.459Z,0
2022-11-03T02:23:16.912Z,0
2022-11-03T02:24:16.518Z,0
2022-11-03T02:26:18.738Z,0
2022-11-03T02:29:22.764Z,0
2022-11-03T02:30:20.375Z,0
2022-11-03T02:31:21.441Z,0
2022-11-03T02:32:21.910Z,0
2022-11-03T02:33:22.101Z,0
2022-11-03T02:34:22.301Z,0
2022-11-03T02:36:23.446Z,0
2022-11-03T02:37:23.052Z,0
2022-11-03T02:39:29.233Z,0
2022-11-03T02:40:25.438Z,0
2022-11-03T02:41:25.770Z,0
2022-11-03T02:42:26.246Z,0
2022-11-03T02:43:26.440Z,0
2022-11-03T02:44:27.328Z,0
2022-11-03T02:45:28.865Z,0
2022-11-03T02:46:27.530Z,0
2022-11-03T02:47:28.136Z,0
2022-11-03T02:48:29.046Z,0
2022-11-03T02:49:29.261Z,0
2022-11-03T02:50:30.466Z,0
2022-11-03T02:51:30.152Z,0
2022-11-03T02:52:31.081Z,0
2022-11-03T02:53:32.257Z,0
2022-11-03T02:54:32.870Z,0
2022-11-03T02:55:32.779Z,0
2022-11-03T02:56:33.421Z,0
2022-11-03T02:57:33.348Z,0
2022-11-03T02:58:33.669Z,0
2022-11-03T02:59:34.312Z,0
2022-11-03T03:00:35.241Z,0
2022-11-03T03:01:36.268Z,0
2022-11-03T03:02:36.451Z,0
2022-11-03T03:03:37.108Z,0
2022-11-03T03:04:37.311Z,0
2022-11-03T03:05:38.197Z,0
2022-11-03T03:06:38.396Z,0
2022-11-03T03:07:39.004Z,0
2022-11-03T03:08:40.223Z,0
2022-11-03T03:09:39.862Z,0
2022-11-03T03:10:41.059Z,0
2022-11-03T03:11:43.551Z,0
2022-11-03T03:12:43.029Z,0
2022-11-03T03:13:43.217Z,0
2022-11-03T03:14:43.411Z,0
2022-11-03T03:15:44.027Z,0
2022-11-03T03:16:44.926Z,0
2022-11-03T03:17:46.123Z,0
2022-11-03T03:18:46.765Z,0
2022-11-03T03:19:47.980Z,0
2022-11-03T03:20:48.574Z,0
2022-11-03T03:21:49.554Z,0
2022-11-03T03:22:50.468Z,0
2022-11-03T03:23:51.667Z,0
2022-11-03T03:24:51.874Z,0
2022-11-03T03:25:52.766Z,0
2022-11-03T03:26:54.116Z,0
2022-11-03T03:27:54.322Z,0
2022-11-03T03:28:54.508Z,0
2022-11-03T03:29:54.847Z,0
2022-11-03T03:30:56.032Z,0
2022-11-03T03:31:56.859Z,0
2022-11-03T03:32:56.765Z,0
2022-11-03T03:34:35.005Z,0
2022-11-03T03:34:58.597Z,0
2022-11-03T03:35:58.501Z,0
2022-11-03T03:36:59.410Z,0
2022-11-03T03:37:59.995Z,0
2022-11-03T03:39:00.723Z,0
2022-11-03T03:40:01.647Z,0
2022-11-03T03:41:04.457Z,0
2022-11-03T03:42:02.445Z,0
2022-11-03T03:43:02.660Z,0
2022-11-03T03:44:03.271Z,0
2022-11-03T03:45:03.855Z,0
2022-11-03T03:46:05.339Z,0
2022-11-03T03:47:05.552Z,0
2022-11-03T03:48:16.716Z,0
2022-11-03T03:49:05.645Z,0
2022-11-03T03:50:06.837Z,0
2022-11-03T03:51:08.046Z,0
2022-11-03T03:52:08.007Z,0
2022-11-03T03:53:08.191Z,0
2022-11-03T03:54:09.392Z,0
2022-11-03T03:55:09.276Z,0
2022-11-03T03:56:10.225Z,0
2022-11-03T03:57:11.454Z,0
2022-11-03T03:58:12.578Z,0
2022-11-03T03:59:11.882Z,0
2022-11-03T04:00:13.160Z,0
2022-11-03T04:01:13.658Z,0
2022-11-03T04:02:14.006Z,0
2022-11-03T04:03:14.693Z,0
2022-11-03T04:04:14.903Z,0
2022-11-03T04:05:16.102Z,0
2022-11-03T04:06:16.306Z,0
2022-11-03T04:07:16.508Z,0
2022-11-03T04:08:17.814Z,0
2022-11-03T04:09:18.140Z,0
2022-11-03T04:10:19.022Z,0
2022-11-03T04:11:20.228Z,0
2022-11-03T04:12:20.556Z,0
2022-11-03T04:13:20.762Z,0
2022-11-03T04:14:20.815Z,0
2022-11-03T04:15:21.726Z,0
2022-11-03T04:16:22.359Z,0
2022-11-03T04:17:23.260Z,0
2022-11-03T04:18:23.876Z,0
2022-11-03T04:19:25.084Z,0
2022-11-03T04:20:25.001Z,0
2022-11-03T04:21:25.885Z,0
2022-11-03T04:22:26.458Z,0
2022-11-03T04:23:27.064Z,0
2022-11-03T04:24:26.969Z,0
2022-11-03T04:25:27.873Z,0
2022-11-03T04:26:27.801Z,0
2022-11-03T04:27:29.160Z,0
2022-11-03T04:28:29.658Z,0
2022-11-03T04:29:29.540Z,0
2022-11-03T04:30:29.875Z,0
2022-11-03T04:31:30.497Z,0
2022-11-03T04:32:32.062Z,0
2022-11-03T04:33:32.001Z,0
2022-11-03T04:34:33.203Z,0
2022-11-03T04:35:33.410Z,0
2022-11-03T04:36:33.592Z,0
2022-11-03T04:37:33.507Z,0
2022-11-03T04:38:33.355Z,0
2022-11-03T04:39:34.352Z,0
2022-11-03T04:40:34.577Z,0
2022-11-03T04:41:35.829Z,0
2022-11-03T04:42:35.875Z,0
2022-11-03T04:43:36.057Z,0
2022-11-03T04:44:36.243Z,0
2022-11-03T04:45:37.149Z,0
2022-11-03T04:46:36.790Z,0
2022-11-03T04:47:37.981Z,0
2022-11-03T04:48:38.904Z,0
2022-11-03T04:49:39.231Z,0
2022-11-03T04:50:44.162Z,0
2022-11-03T04:51:41.033Z,0
2022-11-03T04:52:41.733Z,0
2022-11-03T04:53:42.917Z,0
2022-11-03T04:54:43.521Z,0
2022-11-03T04:55:44.132Z,0
2022-11-03T04:56:44.743Z,0
2022-11-03T04:57:46.002Z,0
2022-11-03T04:58:45.910Z,0
2022-11-03T04:59:47.126Z,0
2022-11-03T05:00:48.270Z,0
2022-11-03T05:01:49.160Z,0
2022-11-03T05:02:50.229Z,0
2022-11-03T05:03:49.340Z,0
2022-11-03T05:04:50.015Z,0
2022-11-03T05:05:51.208Z,0
2022-11-03T05:06:51.119Z,0
2022-11-03T05:07:51.757Z,0
2022-11-03T05:08:52.635Z,0
2022-11-03T05:09:53.656Z,0
2022-11-03T05:10:53.567Z,0
2022-11-03T05:11:55.072Z,0
2022-11-03T05:12:56.113Z,0
2022-11-03T05:13:56.328Z,0
2022-11-03T05:15:04.603Z,0
2022-11-03T05:15:57.492Z,0
2022-11-03T05:16:58.108Z,0
2022-11-03T05:17:59.008Z,0
2022-11-03T05:18:59.892Z,0
2022-11-03T05:20:01.112Z,0
2022-11-03T05:21:02.034Z,0
2022-11-03T05:22:01.944Z,0
2022-11-03T05:23:03.408Z,0
2022-11-03T05:24:03.544Z,0
2022-11-03T05:25:03.874Z,0
2022-11-03T05:26:04.520Z,0
2022-11-03T05:27:05.423Z,0
2022-11-03T05:28:06.233Z,0
2022-11-03T05:29:06.658Z,0
2022-11-03T05:30:11.191Z,0
2022-11-03T05:31:06.823Z,0
2022-11-03T05:32:07.728Z,0
2022-11-03T05:33:08.461Z,0
2022-11-03T05:34:08.639Z,0
2022-11-03T05:35:09.273Z,0
2022-11-03T05:36:10.210Z,0
2022-11-03T05:37:10.538Z,4
2022-11-03T05:38:12.183Z,0
2022-11-03T05:39:12.087Z,0
2022-11-03T05:40:12.999Z,4
2022-11-03T05:41:14.198Z,0
2022-11-03T05:42:14.080Z,4
2022-11-03T05:43:18.798Z,4
2022-11-03T05:44:15.987Z,4
2022-11-03T05:45:16.190Z,4
2022-11-03T05:46:15.811Z,8
2022-11-03T05:47:19.542Z,8
2022-11-03T05:48:17.985Z,12
2022-11-03T05:49:18.171Z,12
2022-11-03T05:50:18.509Z,16
2022-11-03T05:51:19.436Z,16
2022-11-03T05:52:19.615Z,16
2022-11-03T05:53:20.330Z,16
2022-11-03T05:54:25.385Z,20
2022-11-03T05:55:22.016Z,24
2022-11-03T05:56:22.628Z,28
2022-11-03T05:57:23.520Z,32
2022-11-03T05:58:24.182Z,36
2022-11-03T05:59:24.112Z,36
2022-11-03T06:00:24.736Z,40
2022-11-03T06:01:25.399Z,52
2022-11-03T06:02:27.236Z,56
2022-11-03T06:03:26.688Z,64
2022-11-03T06:04:26.881Z,68
2022-11-03T06:05:27.803Z,76
2022-11-03T06:06:37.357Z,80
2022-11-03T06:07:29.263Z,80
2022-11-03T06:08:30.590Z,88
2022-11-03T06:09:29.931Z,92
2022-11-03T06:10:29.835Z,100
2022-11-03T06:11:30.746Z,104
2022-11-03T06:12:31.360Z,112
2022-11-03T06:13:32.897Z,124
2022-11-03T06:14:35.451Z,136
2022-11-03T06:15:33.670Z,144
2022-11-03T06:16:33.301Z,156
2022-11-03T06:17:34.515Z,168
2022-11-03T06:18:34.408Z,180
2022-11-03T06:19:35.323Z,192
2022-11-03T06:20:35.815Z,204
2022-11-03T06:21:37.529Z,220
2022-11-03T06:22:36.668Z,232
2022-11-03T06:23:37.233Z,244
2022-11-03T06:24:37.122Z,264
2022-11-03T06:25:37.313Z,292
2022-11-03T06:26:37.651Z,332
2022-11-03T06:27:38.558Z,328
2022-11-03T06:28:40.097Z,324
2022-11-03T06:29:39.988Z,348
2022-11-03T06:31:42.070Z,420
2022-11-03T06:32:41.699Z,416
2022-11-03T06:33:42.983Z,444
2022-11-03T06:34:43.173Z,496
2022-11-03T06:35:43.367Z,496
2022-11-03T06:36:44.565Z,468
2022-11-03T06:37:44.474Z,480
2022-11-03T06:38:44.659Z,448
2022-11-03T06:39:45.844Z,420
2022-11-03T06:40:46.051Z,420
2022-11-03T06:41:46.260Z,416
2022-11-03T06:42:45.872Z,412
2022-11-03T06:43:47.217Z,420
2022-11-03T06:44:47.408Z,424
2022-11-03T06:45:48.313Z,428
2022-11-03T06:46:49.501Z,440
2022-11-03T06:47:49.691Z,480
2022-11-03T06:48:50.901Z,540
2022-11-03T06:49:50.791Z,572
2022-11-03T06:50:55.957Z,576
2022-11-03T06:51:51.877Z,564
2022-11-03T06:52:52.625Z,580
2022-11-03T06:53:53.320Z,596
2022-11-03T06:54:54.227Z,600
2022-11-03T06:55:54.411Z,612
2022-11-03T06:56:55.323Z,684
2022-11-03T06:57:55.936Z,788
2022-11-03T06:58:56.476Z,828
2022-11-03T07:00:35.039Z,684
2022-11-03T07:01:09.792Z,704
2022-11-03T07:01:58.750Z,696
2022-11-03T07:02:58.836Z,660
2022-11-03T07:03:59.638Z,664
2022-11-03T07:05:00.554Z,744
2022-11-03T07:06:00.173Z,800
2022-11-03T07:07:04.625Z,848
2022-11-03T07:08:01.820Z,1028
2022-11-03T07:09:02.010Z,1304
2022-11-03T07:10:02.206Z,1464
2022-11-03T07:11:02.528Z,2120
2022-11-03T07:12:03.448Z,2144
2022-11-03T07:13:13.080Z,2064
2022-11-03T07:14:05.374Z,2000
2022-11-03T07:16:06.639Z,2580
2022-11-03T07:17:06.688Z,2704
2022-11-03T07:18:08.104Z,2412
2022-11-03T07:19:08.554Z,2172
2022-11-03T07:20:10.044Z,2164
2022-11-03T07:21:10.239Z,2264
2022-11-03T07:22:10.590Z,1868
2022-11-03T07:23:11.491Z,3448
2022-11-03T07:24:11.504Z,4400
2022-11-03T07:25:12.431Z,4536
2022-11-03T07:26:13.328Z,4216
2022-11-03T07:27:13.824Z,3912
2022-11-03T07:28:14.653Z,3672
2022-11-03T07:29:13.998Z,3236
2022-11-03T07:30:14.196Z,3044
2022-11-03T07:31:22.285Z,2844
2022-11-03T07:32:16.206Z,2856
2022-11-03T07:33:16.825Z,2956
2022-11-03T07:34:16.983Z,3660
2022-11-03T07:35:17.599Z,2756
2022-11-03T07:36:27.071Z,1784
2022-11-03T07:37:19.605Z,2060
2022-11-03T07:38:20.177Z,3264
2022-11-03T07:39:20.098Z,2488
2022-11-03T07:40:20.740Z,2396
2022-11-03T07:41:21.643Z,2532
2022-11-03T07:42:21.806Z,1456
2022-11-03T07:43:22.725Z,1816
2022-11-03T07:44:23.505Z,2016
2022-11-03T07:45:24.020Z,2480
2022-11-03T07:46:25.035Z,3180
2022-11-03T07:47:24.654Z,3180
2022-11-03T07:48:25.571Z,2724
2022-11-03T07:49:25.896Z,2084
2022-11-03T07:50:26.517Z,1784
2022-11-03T07:51:27.452Z,1768
2022-11-03T07:52:28.100Z,1864
2022-11-03T07:53:32.872Z,1760
2022-11-03T07:54:28.840Z,1780
2022-11-03T07:55:29.752Z,1784
2022-11-03T07:56:30.150Z,2340
2022-11-03T07:57:30.468Z,2640
2022-11-03T07:58:31.387Z,2580
2022-11-03T07:59:32.095Z,2208
2022-11-03T08:00:32.680Z,2024
2022-11-03T08:01:32.894Z,1696
2022-11-03T08:02:33.267Z,1564
2022-11-03T08:03:33.630Z,1452
2022-11-03T08:04:34.096Z,1388
2022-11-03T08:05:35.007Z,1344
2022-11-03T08:06:35.650Z,1316
2022-11-03T08:07:36.329Z,1304
2022-11-03T08:08:36.650Z,1332
2022-11-03T08:09:37.565Z,1408
2022-11-03T08:10:38.193Z,1516
2022-11-03T08:11:41.321Z,1952
2022-11-03T08:14:40.570Z,2020
2022-11-03T08:15:40.787Z,2180
2022-11-03T08:16:41.703Z,2564
2022-11-03T08:17:42.034Z,3180
2022-11-03T08:18:42.257Z,2856
2022-11-03T08:19:43.462Z,3332
2022-11-03T08:20:43.391Z,2816
2022-11-03T08:21:43.998Z,2324
2022-11-03T08:22:59.212Z,1996
2022-11-03T08:23:53.148Z,2224
2022-11-03T08:24:46.148Z,2224
2022-11-03T08:25:45.774Z,1852
2022-11-03T08:26:47.065Z,1612
2022-11-03T08:27:46.680Z,1412
2022-11-03T08:28:48.433Z,1384
2022-11-03T08:29:48.971Z,1392
2022-11-03T08:30:49.172Z,1404
2022-11-03T08:31:50.081Z,1396
2022-11-03T08:32:50.282Z,1404
2022-11-03T08:33:50.900Z,1368
2022-11-03T08:34:51.660Z,1328
2022-11-03T08:35:51.580Z,1344
2022-11-03T08:36:52.889Z,1336
2022-11-03T08:37:52.824Z,1364
2022-11-03T08:38:53.461Z,1332
2022-11-03T08:39:54.354Z,1256
2022-11-03T08:41:01.152Z,1244
2022-11-03T08:41:55.770Z,1292
2022-11-03T08:42:56.380Z,1332
2022-11-03T08:43:57.023Z,1564
2022-11-03T08:44:58.169Z,1844
2022-11-03T08:46:03.196Z,1836
2022-11-03T08:46:58.656Z,1492
2022-11-03T08:47:59.590Z,1920
2022-11-03T08:49:00.656Z,2080
2022-11-03T08:50:00.858Z,1972
2022-11-03T08:51:02.080Z,1880
2022-11-03T08:52:01.977Z,1772
2022-11-03T08:53:03.228Z,1620
2022-11-03T08:54:02.872Z,1584
2022-11-03T08:55:04.129Z,1648
2022-11-03T08:56:07.692Z,1684
2022-11-03T08:57:05.727Z,1912
2022-11-03T08:58:07.046Z,2360
2022-11-03T08:59:06.872Z,2212
2022-11-03T09:00:08.436Z,2028
2022-11-03T09:01:08.655Z,2064
2022-11-03T09:02:09.447Z,2476
2022-11-03T09:03:09.998Z,2844
2022-11-03T09:04:10.667Z,2384
2022-11-03T09:05:10.403Z,2068
2022-11-03T09:06:11.891Z,2384
2022-11-03T09:07:11.614Z,2240
2022-11-03T09:10:43.843Z,2976
2022-11-03T09:11:31.774Z,2804
2022-11-03T09:12:33.269Z,2728
2022-11-03T09:13:32.929Z,2884
2022-11-03T09:14:34.424Z,3252
2022-11-03T09:15:35.238Z,3344
2022-11-03T09:16:35.523Z,2900
2022-11-03T09:17:35.529Z,2908
2022-11-03T09:18:36.198Z,3624
2022-11-03T09:19:36.818Z,3420
2022-11-03T09:20:37.720Z,3020
2022-11-03T09:21:37.963Z,2764
2022-11-03T09:22:38.154Z,2600
2022-11-03T09:23:38.804Z,2844
2022-11-03T09:24:39.726Z,2644
2022-11-03T09:25:40.641Z,2612
2022-11-03T09:26:41.151Z,2600
2022-11-03T09:27:41.071Z,2384
2022-11-03T09:28:41.988Z,2920
2022-11-03T09:30:19.919Z,5012
2022-11-03T09:30:43.202Z,5336
2022-11-03T09:31:43.429Z,6160
2022-11-03T09:32:44.360Z,5876
2022-11-03T09:33:45.278Z,3148
2022-11-03T09:34:45.937Z,3748
2022-11-03T09:35:46.723Z,3932
2022-11-03T09:36:52.215Z,4972
2022-11-03T09:37:47.961Z,5900
2022-11-03T09:40:51.407Z,3460
2022-11-03T09:42:09.596Z,3112
2022-11-03T09:42:50.554Z,3140
2022-11-03T09:43:51.056Z,3332
2022-11-03T09:44:51.440Z,3316
2022-11-03T09:45:52.736Z,3100
2022-11-03T09:48:55.245Z,3452
2022-11-03T09:49:56.848Z,4032
2022-11-03T09:50:57.395Z,4584
2022-11-03T09:51:57.622Z,5424
2022-11-03T09:53:02.910Z,7172
2022-11-03T09:53:58.676Z,8244
2022-11-03T09:54:59.308Z,8408
2022-11-03T09:55:59.647Z,8480
2022-11-03T09:57:00.865Z,9184
2022-11-03T09:58:01.069Z,9424
2022-11-03T09:59:05.621Z,9532
2022-11-03T10:00:03.102Z,9560
2022-11-03T10:01:03.897Z,9604
2022-11-03T10:02:04.228Z,9828
2022-11-03T10:03:03.904Z,9216
2022-11-03T10:04:05.427Z,9440
2022-11-03T10:05:09.881Z,10720
2022-11-03T10:06:05.776Z,9392
2022-11-03T10:07:06.324Z,7460
2022-11-03T10:08:06.739Z,8808
2022-11-03T10:09:07.703Z,9404
2022-11-03T10:10:07.859Z,9328
2022-11-03T10:11:08.513Z,7200
2022-11-03T10:12:09.158Z,5064
2022-11-03T10:13:11.107Z,8756
2022-11-03T10:14:10.609Z,6208
2022-11-03T10:15:10.299Z,8612
2022-11-03T10:16:11.295Z,10652
2022-11-03T10:17:11.641Z,8632
2022-11-03T10:18:12.134Z,9956
2022-11-03T10:19:12.036Z,8588
2022-11-03T10:20:12.763Z,8936
2022-11-03T10:21:13.518Z,8936
2022-11-03T10:22:14.568Z,9516
2022-11-03T10:23:16.715Z,9644
2022-11-03T10:24:16.940Z,9748
2022-11-03T10:25:17.453Z,10708
2022-11-03T10:26:17.093Z,11216
2022-11-03T10:27:18.303Z,10868
2022-11-03T10:28:24.392Z,10496
2022-11-03T10:30:19.828Z,11352
2022-11-03T10:31:23.573Z,11640
2022-11-03T10:32:20.797Z,11108
2022-11-03T10:33:21.430Z,7440
2022-11-03T10:34:21.790Z,4684
2022-11-03T10:35:22.713Z,4196
2022-11-03T10:36:23.423Z,5680
2022-11-03T10:37:24.649Z,6112
2022-11-03T10:38:24.315Z,4980
2022-11-03T10:39:25.614Z,4576
2022-11-03T10:40:57.100Z,4232
2022-11-03T10:41:25.750Z,4240
2022-11-03T10:42:30.572Z,8912
2022-11-03T10:43:26.721Z,7720
2022-11-03T10:44:27.940Z,7740
2022-11-03T10:45:28.200Z,8008
2022-11-03T10:46:57.274Z,7828
2022-11-03T10:47:29.639Z,7940
2022-11-03T10:48:29.896Z,8560
2022-11-03T10:49:30.116Z,8052
2022-11-03T10:50:30.834Z,7204
2022-11-03T10:51:32.054Z,6588
2022-11-03T10:52:32.409Z,7456
2022-11-03T10:53:32.767Z,7056
2022-11-03T10:54:33.155Z,7132
2022-11-03T10:56:34.738Z,5856
2022-11-03T10:57:35.649Z,5104
2022-11-03T10:58:35.850Z,6400
2022-11-03T10:59:36.344Z,5360
2022-11-03T11:00:37.190Z,6040
2022-11-03T11:01:38.502Z,5396
2022-11-03T11:02:39.164Z,6180
2022-11-03T11:03:39.393Z,6300
2022-11-03T11:04:40.105Z,5576
2022-11-03T11:05:39.951Z,7048
2022-11-03T11:06:41.448Z,6228
2022-11-03T11:07:41.758Z,6568
2022-11-03T11:08:41.972Z,5344
2022-11-03T11:09:41.920Z,4216
2022-11-03T11:10:42.674Z,3760
2022-11-03T11:11:43.598Z,4660
2022-11-03T11:12:43.802Z,6052
2022-11-03T11:13:43.426Z,5460
2022-11-03T11:14:44.362Z,4564
2022-11-03T11:15:45.300Z,3932
2022-11-03T11:16:45.924Z,3320
2022-11-03T11:17:47.173Z,3196
2022-11-03T11:18:47.684Z,3344
2022-11-03T11:19:48.040Z,3500
2022-11-03T11:20:49.081Z,3388
2022-11-03T11:21:50.287Z,4304
2022-11-03T11:22:49.922Z,4960
2022-11-03T11:23:50.865Z,5528
2022-11-03T11:24:51.795Z,5172
2022-11-03T11:25:52.712Z,4612
2022-11-03T11:26:52.941Z,3660
2022-11-03T11:27:55.512Z,3672
2022-11-03T11:28:53.800Z,3976
2022-11-03T11:29:53.995Z,4592
2022-11-03T11:30:54.029Z,5472
2022-11-03T11:31:54.976Z,5612
2022-11-03T11:32:55.549Z,5440
2022-11-03T11:33:55.755Z,5400
2022-11-03T11:34:56.244Z,5300
2022-11-03T11:36:04.839Z,4536
2022-11-03T11:36:58.219Z,4716
2022-11-03T11:37:58.417Z,4552
2022-11-03T11:38:59.341Z,4404
2022-11-03T11:40:00.548Z,4200
2022-11-03T11:41:00.313Z,4224
2022-11-03T11:42:01.509Z,4056
2022-11-03T11:43:02.817Z,4272
2022-11-03T11:44:02.857Z,4680
2022-11-03T11:45:03.884Z,4652
2022-11-03T11:46:03.789Z,4396
2022-11-03T11:47:04.214Z,4420
2022-11-03T11:48:05.482Z,5160
2022-11-03T11:49:06.235Z,5088
2022-11-03T11:50:06.444Z,5276
2022-11-03T11:51:07.496Z,4536
2022-11-03T11:52:09.250Z,4968
2022-11-03T11:53:09.924Z,4048
2022-11-03T11:54:29.055Z,4044
2022-11-03T11:55:11.446Z,4680
2022-11-03T11:56:11.945Z,4660
2022-11-03T11:57:12.144Z,4836
2022-11-03T11:58:13.365Z,5448
2022-11-03T11:59:13.569Z,5632
2022-11-03T12:00:14.846Z,5672
2022-11-03T12:01:15.350Z,5760
2022-11-03T12:02:15.367Z,5812
2022-11-03T12:03:18.146Z,5944
2022-11-03T12:04:19.868Z,5900
2022-11-03T12:05:17.122Z,5908
2022-11-03T12:06:17.044Z,6068
2022-11-03T12:07:17.721Z,6272
2022-11-03T12:08:19.133Z,6008
2022-11-03T12:09:19.359Z,5560
2022-11-03T12:10:20.082Z,4240
2022-11-03T12:11:20.784Z,4264
2022-11-03T12:12:21.833Z,4380
2022-11-03T12:13:22.050Z,4032
2022-11-03T12:14:22.972Z,3564
2022-11-03T12:15:23.179Z,4032
2022-11-03T12:16:23.782Z,4040
2022-11-03T12:17:23.695Z,3840
2022-11-03T12:18:24.946Z,3120
2022-11-03T12:19:24.426Z,2516
2022-11-03T12:20:25.687Z,2296
2022-11-03T12:21:25.462Z,2200
2022-11-03T12:22:26.404Z,2192
2022-11-03T12:23:27.063Z,2252
2022-11-03T12:24:28.288Z,2356
2022-11-03T12:25:28.497Z,2448
2022-11-03T12:26:29.454Z,2588
2022-11-03T12:27:30.392Z,2536
2022-11-03T12:28:31.313Z,2648
2022-11-03T12:29:31.234Z,2808
2022-11-03T12:30:35.588Z,3056
2022-11-03T12:31:36.878Z,3516
2022-11-03T12:32:44.999Z,3372
2022-11-03T12:33:34.306Z,3556
2022-11-03T12:34:34.550Z,4036
2022-11-03T12:35:35.170Z,5016
2022-11-03T12:36:36.660Z,4568
2022-11-03T12:37:36.321Z,5048
2022-11-03T12:38:36.681Z,4652
2022-11-03T12:39:37.583Z,4404
2022-11-03T12:40:38.290Z,4464
2022-11-03T12:41:39.332Z,5344
2022-11-03T12:42:39.554Z,5444
2022-11-03T12:43:40.492Z,4904
2022-11-03T12:44:49.228Z,4692
2022-11-03T12:45:42.079Z,4464
2022-11-03T12:46:42.703Z,4332
2022-11-03T12:47:43.901Z,4184
2022-11-03T12:48:44.484Z,4208
2022-11-03T12:49:44.403Z,4088
2022-11-03T12:50:45.620Z,3584
2022-11-03T12:51:46.055Z,3144
2022-11-03T12:52:46.304Z,2416
2022-11-03T12:53:46.238Z,2056
2022-11-03T12:54:46.189Z,1636
2022-11-03T12:55:51.062Z,1492
2022-11-03T12:56:48.576Z,1448
2022-11-03T12:57:49.235Z,1460
2022-11-03T12:58:49.489Z,1596
2022-11-03T12:59:50.739Z,1736
2022-11-03T13:01:03.097Z,2112
2022-11-03T13:01:51.943Z,2096
2022-11-03T13:02:52.701Z,2360
2022-11-03T13:03:53.190Z,2420
2022-11-03T13:04:53.419Z,2248
2022-11-03T13:05:53.657Z,2216
2022-11-03T13:06:55.339Z,2184
2022-11-03T13:07:55.373Z,2120
2022-11-03T13:08:59.338Z,2072
2022-11-03T13:09:56.539Z,1868
2022-11-03T13:10:56.488Z,1672
2022-11-03T13:11:56.959Z,1512
2022-11-03T13:12:57.853Z,1416
2022-11-03T13:13:58.816Z,1416
2022-11-03T13:14:59.776Z,1312
2022-11-03T13:16:00.402Z,1200
2022-11-03T13:17:02.151Z,1160
2022-11-03T13:18:24.106Z,1108
2022-11-03T13:19:03.644Z,1096
2022-11-03T13:20:06.217Z,1044
2022-11-03T13:21:04.205Z,1016
2022-11-03T13:22:04.950Z,984
2022-11-03T13:23:05.964Z,964
2022-11-03T13:24:06.533Z,944
2022-11-03T13:25:06.217Z,924
2022-11-03T13:26:06.815Z,908
2022-11-03T13:27:07.433Z,896
2022-11-03T13:28:07.739Z,880
2022-11-03T13:29:08.660Z,876
2022-11-03T13:30:09.953Z,872
2022-11-03T13:31:10.170Z,864
2022-11-03T13:32:10.026Z,856
2022-11-03T13:33:12.071Z,848
2022-11-03T13:34:11.901Z,852
2022-11-03T13:35:19.752Z,864
2022-11-03T13:36:13.209Z,860
2022-11-03T13:37:12.678Z,872
2022-11-03T13:38:13.579Z,880
2022-11-03T13:39:14.788Z,904
2022-11-03T13:41:03.778Z,932
2022-11-03T13:41:24.099Z,952
2022-11-03T13:42:25.098Z,1004
2022-11-03T13:43:25.318Z,1076
2022-11-03T13:44:26.207Z,1152
2022-11-03T13:45:27.424Z,1204
2022-11-03T13:46:27.332Z,1276
2022-11-03T13:50:26.313Z,1216
2022-11-03T13:51:03.985Z,1212
2022-11-03T13:52:04.365Z,1204
2022-11-03T13:55:44.137Z,1276
2022-11-03T13:56:26.223Z,1248
2022-11-03T13:59:30.566Z,1072
2022-11-03T13:59:47.773Z,1060
2022-11-03T14:00:48.561Z,1012
2022-11-03T14:04:51.767Z,864
2022-11-03T14:05:52.587Z,840
2022-11-03T14:06:52.800Z,820
2022-11-03T14:07:54.017Z,796
2022-11-03T14:08:53.919Z,768
2022-11-03T14:09:55.021Z,744
2022-11-03T14:10:54.547Z,716
2022-11-03T14:11:55.535Z,696
2022-11-03T14:12:56.452Z,672
2022-11-03T14:13:57.384Z,652
2022-11-03T14:14:57.016Z,632
2022-11-03T14:15:58.388Z,616
2022-11-03T14:16:59.223Z,596
2022-11-03T14:17:59.714Z,576
2022-11-03T14:18:59.702Z,564
2022-11-03T14:20:10.662Z,548
2022-11-03T14:21:01.313Z,540
2022-11-03T14:22:01.507Z,528
2022-11-03T14:23:02.744Z,520
2022-11-03T14:24:02.526Z,508
2022-11-03T14:25:03.749Z,496
2022-11-03T14:26:48.168Z,476
2022-11-03T14:27:04.489Z,468
2022-11-03T14:28:06.784Z,456
2022-11-03T14:29:06.785Z,440
2022-11-03T14:30:06.983Z,428
2022-11-03T14:31:07.177Z,412
2022-11-03T14:32:08.389Z,400
2022-11-03T14:33:11.118Z,388
2022-11-03T14:34:09.275Z,380
2022-11-03T14:35:10.224Z,364